createdAt,value
2024-02-09T00:00:17.817Z,9.418264
2024-02-09T00:01:17.872Z,9.418244
2024-02-09T00:02:18.839Z,9.418212
2024-02-09T00:03:17.822Z,9.418255
2024-02-09T00:04:17.832Z,9.418251
2024-02-09T00:05:17.790Z,9.418237
2024-02-09T00:06:17.845Z,9.418311
2024-02-09T00:07:17.893Z,9.418212
2024-02-09T00:08:17.929Z,9.418237
2024-02-09T00:09:17.746Z,9.418311
2024-02-09T00:10:17.740Z,9.418308
2024-02-09T00:11:17.740Z,9.418299
2024-02-09T00:12:17.733Z,9.418224
2024-02-09T00:13:17.770Z,9.418262
2024-02-09T00:14:17.705Z,9.418283
2024-02-09T00:15:17.704Z,9.418279
2024-02-09T00:16:17.749Z,9.418233
2024-02-09T00:17:17.692Z,9.418210
2024-02-09T00:18:17.818Z,9.418373
2024-02-09T00:19:17.733Z,9.418423
2024-02-09T00:20:17.675Z,9.418407
2024-02-09T00:21:17.659Z,9.418291
2024-02-09T00:22:17.723Z,9.418139
2024-02-09T00:23:17.699Z,9.418225
2024-02-09T00:24:17.639Z,9.418297
2024-02-09T00:25:17.658Z,9.418329
2024-02-09T00:26:17.628Z,9.418344
2024-02-09T00:27:17.632Z,9.418376
2024-02-09T00:28:17.685Z,9.418280
2024-02-09T00:29:17.600Z,9.418296
2024-02-09T00:30:17.632Z,9.418282
2024-02-09T00:31:17.666Z,9.418400
2024-02-09T00:32:17.579Z,9.418293
2024-02-09T00:33:17.711Z,9.418217
2024-02-09T00:34:17.983Z,9.418433
2024-02-09T00:35:17.567Z,9.418292
2024-02-09T00:36:17.559Z,9.418741
2024-02-09T00:37:17.563Z,9.418411
2024-02-09T00:38:17.547Z,9.418345
2024-02-09T00:39:17.555Z,9.418279
2024-02-09T00:40:17.627Z,9.418474
2024-02-09T00:41:17.514Z,9.418479
2024-02-09T00:42:17.507Z,9.418504
2024-02-09T00:43:17.535Z,9.418399
2024-02-09T00:44:17.502Z,9.418267
2024-02-09T00:45:17.562Z,9.418316
2024-02-09T00:46:17.541Z,9.418379
2024-02-09T00:47:17.484Z,9.418322
2024-02-09T00:48:17.470Z,9.418365
2024-02-09T00:49:17.548Z,9.418421
2024-02-09T00:50:17.702Z,9.418301
2024-02-09T00:51:17.446Z,9.418213
2024-02-09T00:52:17.475Z,9.418219
2024-02-09T00:53:17.439Z,9.418311
2024-02-09T00:54:17.419Z,9.418483
2024-02-09T00:55:17.605Z,9.418198
2024-02-09T00:56:17.517Z,9.418155
2024-02-09T00:57:17.403Z,9.418056
2024-02-09T00:58:17.414Z,9.418174
2024-02-09T00:59:17.389Z,9.418266
2024-02-09T01:00:17.543Z,9.418283
2024-02-09T01:01:17.448Z,9.418185
2024-02-09T01:02:17.456Z,9.418181
2024-02-09T01:03:17.373Z,9.418228
2024-02-09T01:04:17.402Z,9.418322
2024-02-09T01:05:17.459Z,9.418264
2024-02-09T01:06:17.372Z,9.418193
2024-02-09T01:07:17.373Z,9.418206
2024-02-09T01:08:17.325Z,9.418243
2024-02-09T01:09:17.321Z,9.418328
2024-02-09T01:10:17.333Z,9.418347
2024-02-09T01:11:17.324Z,9.418261
2024-02-09T01:12:17.315Z,9.418316
2024-02-09T01:13:17.322Z,9.418288
2024-02-09T01:14:17.307Z,9.418321
2024-02-09T01:15:18.295Z,9.418365
2024-02-09T01:16:17.306Z,9.418431
2024-02-09T01:17:17.285Z,9.418432
2024-02-09T01:18:17.300Z,9.418319
2024-02-09T01:19:17.386Z,9.418400
2024-02-09T01:20:17.327Z,9.418303
2024-02-09T01:21:17.269Z,9.418385
2024-02-09T01:22:17.316Z,9.418460
2024-02-09T01:23:17.239Z,9.418307
2024-02-09T01:24:17.236Z,9.418324
2024-02-09T01:25:17.254Z,9.418365
2024-02-09T01:26:17.233Z,9.418356
2024-02-09T01:27:17.220Z,9.418303
2024-02-09T01:28:17.258Z,9.418385
2024-02-09T01:29:17.205Z,9.418401
2024-02-09T01:30:17.194Z,9.418332
2024-02-09T01:31:17.218Z,9.418319
2024-02-09T01:32:17.199Z,9.418452
2024-02-09T01:33:17.291Z,9.418266
2024-02-09T01:34:17.197Z,9.418334
2024-02-09T01:35:17.304Z,9.418350
2024-02-09T01:36:17.144Z,9.418360
2024-02-09T01:37:18.164Z,9.418375
2024-02-09T01:38:18.124Z,9.418418
2024-02-09T01:39:17.148Z,9.418374
2024-02-09T01:40:17.170Z,9.418395
2024-02-09T01:41:17.107Z,9.418337
2024-02-09T01:42:17.109Z,9.418270
2024-02-09T01:43:17.149Z,9.418254
2024-02-09T01:44:17.106Z,9.418279
2024-02-09T01:45:17.086Z,9.418422
2024-02-09T01:46:17.125Z,9.418394
2024-02-09T01:47:17.086Z,9.418361
2024-02-09T01:48:17.199Z,9.418537
2024-02-09T01:49:17.105Z,9.418252
2024-02-09T01:50:17.045Z,9.418382
2024-02-09T01:51:18.053Z,9.418160
2024-02-09T01:52:17.143Z,9.418099
2024-02-09T01:53:17.220Z,9.418270
2024-02-09T01:54:17.045Z,9.418238
2024-02-09T01:55:17.069Z,9.418195
2024-02-09T01:56:17.009Z,9.418431
2024-02-09T01:57:17.010Z,9.418461
2024-02-09T01:58:17.067Z,9.418386
2024-02-09T01:59:16.997Z,9.418359
2024-02-09T02:00:16.977Z,9.418310
2024-02-09T02:01:19.125Z,9.418213
2024-02-09T02:02:18.004Z,9.418163
2024-02-09T02:03:16.980Z,9.418223
2024-02-09T02:04:17.011Z,9.418237
2024-02-09T02:05:16.989Z,9.418256
2024-02-09T02:06:17.935Z,9.418209
2024-02-09T02:07:17.032Z,9.418182
2024-02-09T02:08:16.931Z,9.418241
2024-02-09T02:09:16.954Z,9.418302
2024-02-09T02:10:16.941Z,9.418411
2024-02-09T02:11:16.911Z,9.418431
2024-02-09T02:12:16.932Z,9.418384
2024-02-09T02:13:16.960Z,9.418459
2024-02-09T02:14:16.885Z,9.418501
2024-02-09T02:15:16.896Z,9.418415
2024-02-09T02:16:16.978Z,9.418400
2024-02-09T02:17:16.894Z,9.418307
2024-02-09T02:18:16.862Z,9.418321
2024-02-09T02:19:16.987Z,9.418323
2024-02-09T02:20:17.118Z,9.418270
2024-02-09T02:21:16.863Z,9.418168
2024-02-09T02:22:16.970Z,9.418113
2024-02-09T02:23:16.835Z,9.418215
2024-02-09T02:24:16.821Z,9.418225
2024-02-09T02:25:16.803Z,9.418283
2024-02-09T02:26:16.813Z,9.418194
2024-02-09T02:27:16.805Z,9.418161
2024-02-09T02:28:16.822Z,9.418268
2024-02-09T02:29:16.792Z,9.418272
2024-02-09T02:30:16.773Z,9.418378
2024-02-09T02:31:16.817Z,9.418339
2024-02-09T02:32:16.753Z,9.418429
2024-02-09T02:33:16.812Z,9.418369
2024-02-09T02:34:16.838Z,9.418285
2024-02-09T02:35:16.757Z,9.418299
2024-02-09T02:36:16.737Z,9.418268
2024-02-09T02:37:16.747Z,9.418232
2024-02-09T02:38:16.730Z,9.418231
2024-02-09T02:39:16.718Z,9.418336
2024-02-09T02:40:16.765Z,9.418336
2024-02-09T02:41:16.688Z,9.418260
2024-02-09T02:42:16.722Z,9.418293
2024-02-09T02:43:16.733Z,9.418234
2024-02-09T02:44:16.689Z,9.418225
2024-02-09T02:45:16.673Z,9.418221
2024-02-09T02:46:16.707Z,9.418212
2024-02-09T02:47:16.703Z,9.418231
2024-02-09T02:48:16.723Z,9.418228
2024-02-09T02:49:16.858Z,9.418303
2024-02-09T02:50:16.843Z,9.418242
2024-02-09T02:51:16.621Z,9.418338
2024-02-09T02:52:16.643Z,9.418285
2024-02-09T02:53:16.611Z,9.418277
2024-02-09T02:54:16.620Z,9.418200
2024-02-09T02:55:16.611Z,9.418323
2024-02-09T02:56:16.581Z,9.418369
2024-02-09T02:57:16.585Z,9.417951
2024-02-09T02:58:16.602Z,9.418127
2024-02-09T02:59:16.568Z,9.418267
2024-02-09T03:00:16.824Z,9.418244
2024-02-09T03:01:16.618Z,9.418295
2024-02-09T03:02:16.594Z,9.418174
2024-02-09T03:03:16.538Z,9.418447
2024-02-09T03:04:16.554Z,9.418245
2024-02-09T03:05:16.998Z,9.418230
2024-02-09T03:06:16.575Z,9.418360
2024-02-09T03:07:49.753Z,9.418275
2024-02-09T03:09:17.576Z,9.418204
2024-02-09T03:10:16.529Z,9.418272
2024-02-09T03:11:16.507Z,9.418105
2024-02-09T03:12:16.470Z,9.418200
2024-02-09T03:13:16.475Z,9.418385
2024-02-09T03:14:16.449Z,9.418497
2024-02-09T03:15:16.439Z,9.418386
2024-02-09T03:16:16.585Z,9.418481
2024-02-09T03:17:16.441Z,9.418161
2024-02-09T03:18:16.432Z,9.418002
2024-02-09T03:19:16.858Z,9.418294
2024-02-09T03:20:16.412Z,9.418331
2024-02-09T03:21:16.447Z,9.418363
2024-02-09T03:22:16.426Z,9.418428
2024-02-09T03:23:16.381Z,9.418454
2024-02-09T03:24:16.374Z,9.418311
2024-02-09T03:25:16.400Z,9.418252
2024-02-09T03:26:16.377Z,9.418170
2024-02-09T03:27:16.365Z,9.418210
2024-02-09T03:28:16.508Z,9.418343
2024-02-09T03:29:16.340Z,9.418439
2024-02-09T03:30:16.368Z,9.418234
2024-02-09T03:31:16.340Z,9.418236
2024-02-09T03:32:16.364Z,9.418479
2024-02-09T03:33:16.411Z,9.418445
2024-02-09T03:34:16.457Z,9.418303
2024-02-09T03:35:16.491Z,9.418625
2024-02-09T03:36:16.289Z,9.418882
2024-02-09T03:37:16.374Z,9.418534
2024-02-09T03:38:16.283Z,9.418188
2024-02-09T03:39:16.275Z,9.418463
2024-02-09T03:40:16.295Z,9.418354
2024-02-09T03:41:16.264Z,9.418385
2024-02-09T03:42:16.250Z,9.418375
2024-02-09T03:43:16.321Z,9.418273
2024-02-09T03:44:16.233Z,9.418221
2024-02-09T03:45:16.223Z,9.418258
2024-02-09T03:46:16.317Z,9.418142
2024-02-09T03:47:16.267Z,9.418242
2024-02-09T03:48:16.288Z,9.418287
2024-02-09T03:49:16.327Z,9.418215
2024-02-09T03:50:16.208Z,9.418273
2024-02-09T03:51:16.183Z,9.418461
2024-02-09T03:52:16.215Z,9.418442
2024-02-09T03:53:16.190Z,9.418277
2024-02-09T03:54:16.178Z,9.418343
2024-02-09T03:55:16.191Z,9.418590
2024-02-09T03:56:16.145Z,9.418660
2024-02-09T03:57:16.132Z,9.418621
2024-02-09T03:58:16.172Z,9.418574
2024-02-09T03:59:16.119Z,9.418652
2024-02-09T04:00:16.129Z,9.418363
2024-02-09T04:01:16.335Z,9.418436
2024-02-09T04:02:16.090Z,9.418572
2024-02-09T04:03:16.122Z,9.418633
2024-02-09T04:04:16.363Z,9.418511
2024-02-09T04:05:16.198Z,9.418184
2024-02-09T04:06:16.189Z,9.418401
2024-02-09T04:07:16.145Z,9.418385
2024-02-09T04:08:16.079Z,9.418471
2024-02-09T04:09:40.406Z,9.418554
2024-02-09T04:11:18.070Z,9.418416
2024-02-09T04:12:16.064Z,9.418396
2024-02-09T04:13:16.049Z,9.418385
2024-02-09T04:14:16.018Z,9.418366
2024-02-09T04:15:16.025Z,9.418203
2024-02-09T04:16:16.013Z,9.418283
2024-02-09T04:17:15.989Z,9.418433
2024-02-09T04:18:16.066Z,9.418453
2024-02-09T04:19:16.045Z,9.418477
2024-02-09T04:20:15.980Z,9.418451
2024-02-09T04:21:15.977Z,9.418413
2024-02-09T04:22:15.978Z,9.418361
2024-02-09T04:23:16.063Z,9.418369
2024-02-09T04:24:15.957Z,9.418370
2024-02-09T04:25:16.014Z,9.418271
2024-02-09T04:26:15.947Z,9.418285
2024-02-09T04:27:15.951Z,9.418329
2024-02-09T04:28:18.033Z,9.418322
2024-02-09T04:29:16.916Z,9.418360
2024-02-09T04:30:15.910Z,9.418324
2024-02-09T04:31:15.984Z,9.418376
2024-02-09T04:32:15.892Z,9.418342
2024-02-09T04:33:15.935Z,9.418351
2024-02-09T04:34:15.973Z,9.418401
2024-02-09T04:35:15.934Z,9.418316
2024-02-09T04:36:15.868Z,9.418326
2024-02-09T04:37:15.905Z,9.418299
2024-02-09T04:38:15.857Z,9.418288
2024-02-09T04:39:15.839Z,9.418237
2024-02-09T04:40:16.006Z,9.418327
2024-02-09T04:41:15.843Z,9.418324
2024-02-09T04:42:15.880Z,9.418398
2024-02-09T04:43:15.887Z,9.418335
2024-02-09T04:44:15.808Z,9.418242
2024-02-09T04:45:15.803Z,9.418282
2024-02-09T04:46:15.807Z,9.418310
2024-02-09T04:47:15.780Z,9.418336
2024-02-09T04:48:15.859Z,9.418301
2024-02-09T04:49:15.880Z,9.418317
2024-02-09T04:50:15.765Z,9.418253
2024-02-09T04:51:15.753Z,9.418263
2024-02-09T04:52:15.761Z,9.418278
2024-02-09T04:53:15.770Z,9.418271
2024-02-09T04:54:15.806Z,9.418350
2024-02-09T04:55:15.730Z,9.418326
2024-02-09T04:56:15.713Z,9.418369
2024-02-09T04:57:15.709Z,9.418336
2024-02-09T04:58:15.736Z,9.418285
2024-02-09T04:59:15.697Z,9.418206
2024-02-09T05:00:15.796Z,9.418324
2024-02-09T05:01:15.726Z,9.418316
2024-02-09T05:02:15.695Z,9.418270
2024-02-09T05:03:17.837Z,9.418287
2024-02-09T05:04:15.725Z,9.418278
2024-02-09T05:05:15.911Z,9.418306
2024-02-09T05:06:15.669Z,9.418347
2024-02-09T05:07:15.696Z,9.418317
2024-02-09T05:08:15.668Z,9.418318
2024-02-09T05:09:17.932Z,9.418319
2024-02-09T05:10:16.660Z,9.418328
2024-02-09T05:11:15.614Z,9.418282
2024-02-09T05:12:15.683Z,9.418306
2024-02-09T05:13:15.656Z,9.418345
2024-02-09T05:14:15.600Z,9.418298
2024-02-09T05:15:15.611Z,9.418153
2024-02-09T05:16:15.611Z,9.418219
2024-02-09T05:17:15.566Z,9.418257
2024-02-09T05:18:15.695Z,9.418285
2024-02-09T05:19:15.640Z,9.418316
2024-02-09T05:20:15.674Z,9.418290
2024-02-09T05:21:15.611Z,9.418277
2024-02-09T05:22:15.652Z,9.418279
2024-02-09T05:23:15.559Z,9.418326
2024-02-09T05:24:15.519Z,9.418296
2024-02-09T05:25:15.640Z,9.418313
2024-02-09T05:26:15.495Z,9.418343
2024-02-09T05:27:15.509Z,9.418327
2024-02-09T05:28:15.781Z,9.418348
2024-02-09T05:29:15.498Z,9.418328
2024-02-09T05:30:15.470Z,9.418336
2024-02-09T05:31:15.493Z,9.418296
2024-02-09T05:32:15.462Z,9.418430
2024-02-09T05:33:15.462Z,9.418361
2024-02-09T05:34:15.567Z,9.418316
2024-02-09T05:35:15.493Z,9.418502
2024-02-09T05:36:15.424Z,9.418292
2024-02-09T05:37:15.452Z,9.418353
2024-02-09T05:38:15.405Z,9.418522
2024-02-09T05:39:15.403Z,9.418703
2024-02-09T05:40:15.427Z,9.418671
2024-02-09T05:41:15.389Z,9.418558
2024-02-09T05:42:15.381Z,9.418362
2024-02-09T05:43:15.399Z,9.418270
2024-02-09T05:44:15.368Z,9.418175
2024-02-09T05:45:15.381Z,9.418183
2024-02-09T05:46:15.390Z,9.418248
2024-02-09T05:47:15.353Z,9.418318
2024-02-09T05:48:18.060Z,9.418294
2024-02-09T05:49:16.537Z,9.418228
2024-02-09T05:50:20.611Z,9.418308
2024-02-09T05:51:17.315Z,9.418280
2024-02-09T05:52:15.334Z,9.418375
2024-02-09T05:53:15.307Z,9.418283
2024-02-09T05:54:15.297Z,9.418233
2024-02-09T05:55:15.283Z,9.418380
2024-02-09T05:56:15.281Z,9.418375
2024-02-09T05:57:17.838Z,9.418324
2024-02-09T05:58:15.297Z,9.418322
2024-02-09T05:59:15.252Z,9.418245
2024-02-09T06:00:15.267Z,9.418315
2024-02-09T06:01:15.293Z,9.418242
2024-02-09T06:02:15.886Z,9.418093
2024-02-09T06:03:15.242Z,9.418234
2024-02-09T06:04:15.425Z,9.418275
2024-02-09T06:05:15.325Z,9.418294
2024-02-09T06:06:15.232Z,9.418182
2024-02-09T06:07:15.221Z,9.418143
2024-02-09T06:08:15.186Z,9.418248
2024-02-09T06:09:15.184Z,9.418313
2024-02-09T06:10:15.230Z,9.418317
2024-02-09T06:11:15.191Z,9.418247
2024-02-09T06:12:15.282Z,9.418293
2024-02-09T06:13:15.205Z,9.418299
2024-02-09T06:14:15.198Z,9.418308
2024-02-09T06:15:15.154Z,9.418277
2024-02-09T06:16:15.170Z,9.418202
2024-02-09T06:17:15.135Z,9.418211
2024-02-09T06:18:15.108Z,9.418257
2024-02-09T06:19:15.252Z,9.418242
2024-02-09T06:20:15.167Z,9.418262
2024-02-09T06:21:15.138Z,9.418254
2024-02-09T06:22:15.117Z,9.418222
2024-02-09T06:23:15.105Z,9.418230
2024-02-09T06:24:15.091Z,9.418327
2024-02-09T06:25:15.103Z,9.418375
2024-02-09T06:26:15.137Z,9.418243
2024-02-09T06:27:15.240Z,9.418199
2024-02-09T06:28:15.102Z,9.418257
2024-02-09T06:29:15.046Z,9.418361
2024-02-09T06:30:15.063Z,9.418262
2024-02-09T06:31:15.062Z,9.418262
2024-02-09T06:32:15.039Z,9.418319
2024-02-09T06:33:15.062Z,9.418274
2024-02-09T06:34:15.069Z,9.418263
2024-02-09T06:35:15.666Z,9.418216
2024-02-09T06:36:14.999Z,9.418158
2024-02-09T06:37:15.057Z,9.418189
2024-02-09T06:38:15.049Z,9.418159
2024-02-09T06:39:14.977Z,9.418154
2024-02-09T06:40:15.168Z,9.418186
2024-02-09T06:41:14.963Z,9.418242
2024-02-09T06:42:14.959Z,9.418211
2024-02-09T06:43:15.039Z,9.418043
2024-02-09T06:44:14.944Z,9.418024
2024-02-09T06:45:14.974Z,9.418159
2024-02-09T06:46:15.016Z,9.418171
2024-02-09T06:47:14.912Z,9.418173
2024-02-09T06:48:15.160Z,9.418340
2024-02-09T06:49:15.156Z,9.418400
2024-02-09T06:50:15.007Z,9.418426
2024-02-09T06:51:14.896Z,9.418379
2024-02-09T06:52:14.905Z,9.418354
2024-02-09T06:53:14.912Z,9.418232
2024-02-09T06:54:14.900Z,9.418205
2024-02-09T06:55:14.896Z,9.418418
2024-02-09T06:56:14.850Z,9.418446
2024-02-09T06:57:14.907Z,9.418404
2024-02-09T06:58:14.863Z,9.418296
2024-02-09T06:59:14.851Z,9.418183
2024-02-09T07:00:14.831Z,9.418181
2024-02-09T07:01:15.205Z,9.418226
2024-02-09T07:02:14.878Z,9.418159
2024-02-09T07:03:14.869Z,9.418194
2024-02-09T07:04:14.890Z,9.418159
2024-02-09T07:05:14.820Z,9.418221
2024-02-09T07:06:14.949Z,9.418197
2024-02-09T07:07:14.803Z,9.418199
2024-02-09T07:08:14.771Z,9.418224
2024-02-09T07:09:19.001Z,9.418211
2024-02-09T07:10:16.799Z,9.418272
2024-02-09T07:11:15.298Z,9.418207
2024-02-09T07:12:17.252Z,9.418106
2024-02-09T07:13:14.750Z,9.418054
2024-02-09T07:14:14.735Z,9.418108
2024-02-09T07:15:14.722Z,9.418118
2024-02-09T07:16:14.745Z,9.418136
2024-02-09T07:17:14.720Z,9.418159
2024-02-09T07:18:14.778Z,9.418200
2024-02-09T07:19:14.954Z,9.418292
2024-02-09T07:20:14.789Z,9.418267
2024-02-09T07:21:14.868Z,9.418241
2024-02-09T07:22:14.753Z,9.418283
2024-02-09T07:23:14.675Z,9.418313
2024-02-09T07:24:14.675Z,9.418280
2024-02-09T07:25:14.837Z,9.418290
2024-02-09T07:26:14.648Z,9.418314
2024-02-09T07:27:14.661Z,9.418209
2024-02-09T07:28:14.784Z,9.418104
2024-02-09T07:29:14.660Z,9.418140
2024-02-09T07:30:14.629Z,9.418154
2024-02-09T07:31:14.639Z,9.418222
2024-02-09T07:32:14.633Z,9.418192
2024-02-09T07:33:14.675Z,9.418242
2024-02-09T07:34:14.823Z,9.418200
2024-02-09T07:35:14.699Z,9.418083
2024-02-09T07:36:14.758Z,9.418179
2024-02-09T07:37:14.616Z,9.418360
2024-02-09T07:38:14.571Z,9.418332
2024-02-09T07:39:14.577Z,9.418373
2024-02-09T07:40:14.610Z,9.418198
2024-02-09T07:41:14.567Z,9.418123
2024-02-09T07:42:14.549Z,9.418035
2024-02-09T07:43:14.621Z,9.418225
2024-02-09T07:44:14.567Z,9.418445
2024-02-09T07:45:14.573Z,9.418437
2024-02-09T07:46:14.550Z,9.418390
2024-02-09T07:47:14.515Z,9.418290
2024-02-09T07:48:14.548Z,9.418123
2024-02-09T07:49:15.303Z,9.418174
2024-02-09T07:50:14.505Z,9.418091
2024-02-09T07:51:14.477Z,9.418096
2024-02-09T07:52:14.530Z,9.418198
2024-02-09T07:53:14.465Z,9.418198
2024-02-09T07:54:14.488Z,9.418211
2024-02-09T07:55:14.542Z,9.418209
2024-02-09T07:56:14.444Z,9.418263
2024-02-09T07:57:14.445Z,9.418297
2024-02-09T07:58:14.465Z,9.418359
2024-02-09T07:59:14.437Z,9.418339
2024-02-09T08:00:14.427Z,9.418442
2024-02-09T08:01:14.525Z,9.418445
2024-02-09T08:02:14.525Z,9.418390
2024-02-09T08:03:14.399Z,9.418288
2024-02-09T08:04:14.520Z,9.418329
2024-02-09T08:05:14.456Z,9.418370
2024-02-09T08:06:14.407Z,9.418340
2024-02-09T08:07:14.372Z,9.418303
2024-02-09T08:08:14.364Z,9.418286
2024-02-09T08:09:14.349Z,9.418338
2024-02-09T08:10:14.372Z,9.418252
2024-02-09T08:11:14.336Z,9.418329
2024-02-09T08:12:16.480Z,9.418322
2024-02-09T08:13:14.379Z,9.418351
2024-02-09T08:14:14.334Z,9.418299
2024-02-09T08:15:14.395Z,9.418307
2024-02-09T08:16:14.342Z,9.418320
2024-02-09T08:17:14.287Z,9.418318
2024-02-09T08:18:14.379Z,9.418315
2024-02-09T08:19:14.357Z,9.418307
2024-02-09T08:20:14.366Z,9.418328
2024-02-09T08:21:14.279Z,9.418316
2024-02-09T08:22:14.366Z,9.418340
2024-02-09T08:23:14.295Z,9.418357
2024-02-09T08:24:14.291Z,9.418310
2024-02-09T08:25:14.280Z,9.418290
2024-02-09T08:26:14.241Z,9.418342
2024-02-09T08:27:14.214Z,9.418354
2024-02-09T08:28:14.254Z,9.418313
2024-02-09T08:29:14.192Z,9.418306
2024-02-09T08:30:14.220Z,9.418209
2024-02-09T08:31:14.220Z,9.418293
2024-02-09T08:32:14.194Z,9.418278
2024-02-09T08:33:14.180Z,9.418348
2024-02-09T08:34:14.517Z,9.418400
2024-02-09T08:35:14.244Z,9.418334
2024-02-09T08:36:14.174Z,9.418321
2024-02-09T08:37:14.188Z,9.418303
2024-02-09T08:38:14.141Z,9.418310
2024-02-09T08:39:14.152Z,9.418390
2024-02-09T08:40:14.137Z,9.418372
2024-02-09T08:41:14.132Z,9.418262
2024-02-09T08:42:14.105Z,9.418317
2024-02-09T08:43:14.143Z,9.418381
2024-02-09T08:44:14.081Z,9.418413
2024-02-09T08:45:14.099Z,9.418338
2024-02-09T08:46:14.230Z,9.418324
2024-02-09T08:47:14.087Z,9.418333
2024-02-09T08:48:14.668Z,9.418303
2024-02-09T08:49:14.153Z,9.418297
2024-02-09T08:50:14.116Z,9.418299
2024-02-09T08:51:14.044Z,9.418272
2024-02-09T08:52:14.048Z,9.418260
2024-02-09T08:53:14.769Z,9.418283
2024-02-09T08:54:14.028Z,9.418215
2024-02-09T08:55:14.079Z,9.418259
2024-02-09T08:56:14.019Z,9.418290
2024-02-09T08:57:14.002Z,9.418233
2024-02-09T08:58:14.007Z,9.418195
2024-02-09T08:59:15.014Z,9.418192
2024-02-09T09:00:14.027Z,9.418231
2024-02-09T09:01:14.106Z,9.418308
2024-02-09T09:02:14.130Z,9.418202
2024-02-09T09:03:14.018Z,9.418252
2024-02-09T09:04:14.245Z,9.418234
2024-02-09T09:05:14.014Z,9.418266
2024-02-09T09:06:13.974Z,9.418283
2024-02-09T09:07:14.030Z,9.418275
2024-02-09T09:08:13.942Z,9.418375
2024-02-09T09:09:13.910Z,9.418350
2024-02-09T09:10:13.949Z,9.418377
2024-02-09T09:11:13.906Z,9.418227
2024-02-09T09:12:14.352Z,9.418321
2024-02-09T09:13:13.895Z,9.418297
2024-02-09T09:14:13.906Z,9.418341
2024-02-09T09:15:17.148Z,9.418321
2024-02-09T09:16:14.919Z,9.418362
2024-02-09T09:17:21.318Z,9.418311
2024-02-09T09:18:14.939Z,9.418316
2024-02-09T09:19:14.044Z,9.418245
2024-02-09T09:20:13.910Z,9.418233
2024-02-09T09:21:13.859Z,9.418249
2024-02-09T09:22:13.883Z,9.418204
2024-02-09T09:23:13.836Z,9.418142
2024-02-09T09:24:13.822Z,9.418227
2024-02-09T09:25:13.864Z,9.418266
2024-02-09T09:26:22.269Z,9.418264
2024-02-09T09:27:14.822Z,9.418173
2024-02-09T09:28:13.892Z,9.418145
2024-02-09T09:29:13.791Z,9.418233
2024-02-09T09:30:13.801Z,9.418152
2024-02-09T09:31:13.794Z,9.418242
2024-02-09T09:32:13.762Z,9.418105
2024-02-09T09:33:13.880Z,9.418131
2024-02-09T09:34:13.790Z,9.418234
2024-02-09T09:35:14.010Z,9.418068
2024-02-09T09:36:13.892Z,9.418253
2024-02-09T09:37:13.756Z,9.418179
2024-02-09T09:38:13.732Z,9.418220
2024-02-09T09:39:15.738Z,9.418017
2024-02-09T09:40:13.789Z,9.418056
2024-02-09T09:41:13.878Z,9.418317
2024-02-09T09:42:13.696Z,9.418093
2024-02-09T09:43:13.740Z,9.418232
2024-02-09T09:44:13.731Z,9.418214
2024-02-09T09:45:13.716Z,9.418176
2024-02-09T09:46:13.717Z,9.418269
2024-02-09T09:47:13.664Z,9.418285
2024-02-09T09:48:13.749Z,9.418311
2024-02-09T09:49:14.101Z,9.418275
2024-02-09T09:50:13.876Z,9.418292
2024-02-09T09:51:13.640Z,9.418238
2024-02-09T09:52:13.688Z,9.418162
2024-02-09T09:53:13.624Z,9.418222
2024-02-09T09:54:13.623Z,9.418276
2024-02-09T09:55:13.679Z,9.418119
2024-02-09T09:56:13.667Z,9.418154
2024-02-09T09:57:13.591Z,9.418165
2024-02-09T09:58:13.650Z,9.418208
2024-02-09T09:59:13.580Z,9.418193
2024-02-09T10:00:13.583Z,9.418144
2024-02-09T10:01:14.381Z,9.418150
2024-02-09T10:02:13.598Z,9.418206
2024-02-09T10:03:13.560Z,9.418321
2024-02-09T10:04:13.590Z,9.418286
2024-02-09T10:05:13.804Z,9.418199
2024-02-09T10:06:13.661Z,9.418275
2024-02-09T10:07:13.581Z,9.418255
2024-02-09T10:08:13.578Z,9.418299
2024-02-09T10:09:13.513Z,9.418249
2024-02-09T10:10:13.516Z,9.418264
2024-02-09T10:11:13.564Z,9.418249
2024-02-09T10:12:13.498Z,9.418303
2024-02-09T10:13:13.709Z,9.418259
2024-02-09T10:14:13.483Z,9.418186
2024-02-09T10:15:13.459Z,9.418206
2024-02-09T10:16:13.559Z,9.418206
2024-02-09T10:17:13.449Z,9.418244
2024-02-09T10:18:13.486Z,9.418297
2024-02-09T10:19:13.536Z,9.418270
2024-02-09T10:20:13.449Z,9.418327
2024-02-09T10:21:13.468Z,9.418290
2024-02-09T10:22:19.490Z,9.418265
2024-02-09T10:23:15.419Z,9.418254
2024-02-09T10:24:14.054Z,9.418273
2024-02-09T10:25:13.454Z,9.418280
2024-02-09T10:26:13.430Z,9.418326
2024-02-09T10:27:13.380Z,9.418415
2024-02-09T10:28:13.555Z,9.418419
2024-02-09T10:29:13.363Z,9.418417
2024-02-09T10:30:13.360Z,9.418291
2024-02-09T10:31:13.508Z,9.418314
2024-02-09T10:32:13.362Z,9.418330
2024-02-09T10:33:14.336Z,9.418335
2024-02-09T10:34:14.591Z,9.418303
2024-02-09T10:35:13.519Z,9.418385
2024-02-09T10:36:13.536Z,9.418375
2024-02-09T10:37:21.246Z,9.418398
2024-02-09T10:38:15.389Z,9.418382
2024-02-09T10:39:13.305Z,9.418339
2024-02-09T10:40:13.322Z,9.418347
2024-02-09T10:41:13.312Z,9.418341
2024-02-09T10:42:13.274Z,9.418374
2024-02-09T10:43:13.311Z,9.418454
2024-02-09T10:44:13.259Z,9.418493
2024-02-09T10:45:20.854Z,9.418414
2024-02-09T10:46:15.269Z,9.418436
2024-02-09T10:47:13.321Z,9.418452
2024-02-09T10:48:13.304Z,9.418401
2024-02-09T10:49:13.478Z,9.418379
2024-02-09T10:50:13.320Z,9.418444
2024-02-09T10:51:13.216Z,9.418416
2024-02-09T10:52:13.295Z,9.418382
2024-02-09T10:53:13.216Z,9.418441
2024-02-09T10:54:13.232Z,9.418297
2024-02-09T10:55:13.273Z,9.418271
2024-02-09T10:56:13.249Z,9.418252
2024-02-09T10:57:13.266Z,9.418330
2024-02-09T10:58:13.341Z,9.418519
2024-02-09T10:59:13.516Z,9.418342
2024-02-09T11:00:13.312Z,9.418248
2024-02-09T11:01:13.263Z,9.418278
2024-02-09T11:02:13.167Z,9.418402
2024-02-09T11:03:13.134Z,9.418496
2024-02-09T11:04:13.327Z,9.418328
2024-02-09T11:05:13.250Z,9.418276
2024-02-09T11:06:13.387Z,9.418360
2024-02-09T11:07:13.387Z,9.418306
2024-02-09T11:08:13.189Z,9.418365
2024-02-09T11:09:13.139Z,9.418313
2024-02-09T11:10:13.130Z,9.418354
2024-02-09T11:11:13.090Z,9.418327
2024-02-09T11:12:13.087Z,9.418338
2024-02-09T11:13:13.076Z,9.418356
2024-02-09T11:14:13.065Z,9.418297
2024-02-09T11:15:13.064Z,9.418366
2024-02-09T11:16:13.123Z,9.418358
2024-02-09T11:17:13.139Z,9.418319
2024-02-09T11:18:13.058Z,9.418288
2024-02-09T11:19:13.077Z,9.418230
2024-02-09T11:20:13.092Z,9.418204
2024-02-09T11:21:13.189Z,9.418241
2024-02-09T11:22:13.070Z,9.418275
2024-02-09T11:23:13.012Z,9.418337
2024-02-09T11:24:12.997Z,9.418313
2024-02-09T11:25:13.016Z,9.418314
2024-02-09T11:26:12.999Z,9.418343
2024-02-09T11:27:12.979Z,9.418331
2024-02-09T11:28:13.055Z,9.418410
2024-02-09T11:29:12.970Z,9.418483
2024-02-09T11:30:12.966Z,9.418285
2024-02-09T11:31:13.046Z,9.418329
2024-02-09T11:32:12.950Z,9.418390
2024-02-09T11:33:12.954Z,9.418247
2024-02-09T11:34:12.992Z,9.418217
2024-02-09T11:35:12.971Z,9.418335
2024-02-09T11:36:12.914Z,9.418422
2024-02-09T11:37:13.042Z,9.418590
2024-02-09T11:38:12.920Z,9.418678
2024-02-09T11:39:12.937Z,9.418547
2024-02-09T11:40:12.938Z,9.418489
2024-02-09T11:41:12.888Z,9.418346
2024-02-09T11:43:12.944Z,9.418324
2024-02-09T11:44:12.878Z,9.418308
2024-02-09T11:45:12.891Z,9.418157
2024-02-09T11:46:13.090Z,9.418274
2024-02-09T11:47:12.842Z,9.418319